Time;durP1;ratioP1;P1;durP2;ratioP2;P2;SDS_P1;SDS_P2;PMS_P1;PMS_P2;Temp;Humidity;BMP_temperature;BMP_pressure;BME280_temperature;BME280_humidity;BME280_pressure;Samples;Min_cycle;Max_cycle;Signal;HPM_P1;HPM_P2
2024/01/04 00:01:35;;;;;;;;;;;;;;;;;;5023328;28;19925;-82
2024/01/04 00:04:01;;;;;;;;;;;;;;;;;;5026294;28;19929;-82
2024/01/04 00:06:27;;;;;;;;;;;;;;;;;;5020843;28;20326;-82
2024/01/04 00:08:53;;;;;;;;;;;;;;;;;;5038020;28;19931;-82
2024/01/04 00:11:18;;;;;;;;;;;;;;;;;;5043784;28;19924;-82
2024/01/04 00:13:44;;;;;;;;;;;;;;;;;;5056560;28;19924;-82
2024/01/04 00:16:10;;;;;;;;;;;;;;;;;;5057603;28;19925;-82
2024/01/04 00:18:36;;;;;;;;;;;;;;;;;;5052662;28;19924;-82
2024/01/04 00:21:02;;;;;;;;;;;;;;;;;;5026581;28;19949;-82
2024/01/04 00:23:28;;;;;;;;;;;;;;;;;;5043712;28;19931;-82
2024/01/04 00:25:54;;;;;;;;;;;;;;;;;;5037211;28;19975;-82
2024/01/04 00:28:20;;;;;;;;;;;;;;;;;;5036296;28;19960;-82
2024/01/04 00:30:46;;;;;;;;;;;;;;;;;;5020740;28;19925;-82
2024/01/04 00:33:12;;;;;;;;;;;;;;;;;;5042150;28;20004;-82
2024/01/04 00:35:38;;;;;;;;;;;;;;;;;;5056622;28;19925;-82
2024/01/04 00:38:04;;;;;;;;;;;;;;;;;;5049547;28;20421;-82
2024/01/04 00:40:30;;;;;;;;;;;;;;;;;;5057048;28;19948;-82
2024/01/04 00:42:57;;;;;;;;;;;;;;;;;;5037568;28;19924;-82
2024/01/04 00:45:23;;;;;;;;;;;;;;;;;;5048513;28;19925;-82
2024/01/04 00:47:49;;;;;;;;;;;;;;;;;;5036719;28;19924;-82
2024/01/04 00:50:15;;;;;;;;;;;;;;;;;;5032426;28;19946;-82
2024/01/04 00:52:41;;;;;;;;;;;;;;;;;;5055529;28;19924;-81
2024/01/04 00:55:08;;;;;;;;;;;;;;;;;;5036920;28;20020;-82
2024/01/04 00:57:36;;;;;;;;;;;;;;;;;;5025427;28;19928;-82
2024/01/04 01:00:03;;;;;;;;;;;;;;;;;;5040054;28;19924;-82
2024/01/04 01:02:29;;;;;;;;;;;;;;;;;;5048467;28;19925;-82
2024/01/04 01:04:55;;;;;;;;;;;;;;;;;;5036916;28;19944;-82
2024/01/04 01:07:21;;;;;;;;;;;;;;;;;;5039493;28;19971;-82
2024/01/04 01:09:47;;;;;;;;;;;;;;;;;;5053601;28;20002;-81
2024/01/04 01:12:13;;;;;;;;;;;;;;;;;;5055999;28;20385;-82
2024/01/04 01:14:39;;;;;;;;;;;;;;;;;;5056601;28;19976;-81
2024/01/04 01:17:05;;;;;;;;;;;;;;;;;;5056462;28;19975;-81
2024/01/04 01:19:31;;;;;;;;;;;;;;;;;;5053813;28;19967;-82
2024/01/04 01:21:57;;;;;;;;;;;;;;;;;;5043910;28;19925;-81
2024/01/04 01:24:23;;;;;;;;;;;;;;;;;;5051195;28;19974;-82
2024/01/04 01:26:49;;;;;;;;;;;;;;;;;;5055707;28;19975;-81
2024/01/04 01:29:15;;;;;;;;;;;;;;;;;;5051910;28;19925;-81
2024/01/04 01:31:41;;;;;;;;;;;;;;;;;;5056075;28;19947;-81
2024/01/04 01:34:07;;;;;;;;;;;;;;;;;;5030735;28;19925;-81
2024/01/04 01:36:33;;;;;;;;;;;;;;;;;;5037148;28;19932;-82
2024/01/04 01:38:59;;;;;;;;;;;;;;;;;;5037393;28;19924;-82
2024/01/04 01:41:25;;;;;;;;;;;;;;;;;;5055845;28;20329;-81
2024/01/04 01:43:51;;;;;;;;;;;;;;;;;;5020196;28;19925;-81
2024/01/04 01:46:17;;;;;;;;;;;;;;;;;;5036208;28;20024;-81
2024/01/04 01:48:43;;;;;;;;;;;;;;;;;;5022586;28;19924;-81
2024/01/04 01:51:09;;;;;;;;;;;;;;;;;;5055863;28;19932;-82
2024/01/04 01:53:35;;;;;;;;;;;;;;;;;;5029082;28;19978;-82
2024/01/04 01:56:01;;;;;;;;;;;;;;;;;;5035649;28;19925;-82
2024/01/04 01:58:27;;;;;;;;;;;;;;;;;;5036763;28;19924;-81
2024/01/04 02:00:53;;;;;;;;;;;;;;;;;;5055474;28;19924;-81
2024/01/04 02:03:19;;;;;;;;;;;;;;;;;;5036534;28;19932;-81
2024/01/04 02:05:45;;;;;;;;;;;;;;;;;;5052120;28;20258;-81
2024/01/04 02:08:10;;;;;;;;;;;;;;;;;;5053657;28;19924;-81
2024/01/04 02:10:36;;;;;;;;;;;;;;;;;;5042400;28;20400;-81
2024/01/04 02:13:02;;;;;;;;;;;;;;;;;;5033753;28;20661;-81
2024/01/04 02:15:28;;;;;;;;;;;;;;;;;;5040930;28;19925;-82
2024/01/04 02:17:54;;;;;;;;;;;;;;;;;;5054620;28;20005;-81
2024/01/04 02:20:20;;;;;;;;;;;;;;;;;;5054629;28;19924;-81
2024/01/04 02:22:48;;;;;;;;;;;;;;;;;;5036881;28;19986;-80
2024/01/04 02:25:14;;;;;;;;;;;;;;;;;;5055188;28;19928;-82
2024/01/04 02:27:39;;;;;;;;;;;;;;;;;;5035692;28;19928;-82
2024/01/04 02:30:05;;;;;;;;;;;;;;;;;;5054806;28;19932;-81
2024/01/04 02:32:31;;;;;;;;;;;;;;;;;;5055392;28;20366;-81
2024/01/04 02:34:57;;;;;;;;;;;;;;;;;;5042048;28;19925;-81
2024/01/04 02:37:23;;;;;;;;;;;;;;;;;;5045519;28;19989;-81
2024/01/04 02:39:49;;;;;;;;;;;;;;;;;;5046849;28;19967;-80
2024/01/04 02:42:15;;;;;;;;;;;;;;;;;;5037485;28;19925;-81
2024/01/04 02:44:42;;;;;;;;;;;;;;;;;;5041772;28;20380;-81
2024/01/04 02:47:08;;;;;;;;;;;;;;;;;;5036754;28;19975;-81
2024/01/04 02:49:34;;;;;;;;;;;;;;;;;;5035729;28;19973;-81
2024/01/04 02:51:59;;;;;;;;;;;;;;;;;;5034093;28;19932;-81
2024/01/04 02:54:25;;;;;;;;;;;;;;;;;;5035161;28;19925;-81
2024/01/04 02:56:51;;;;;;;;;;;;;;;;;;5034487;28;19982;-81
2024/01/04 02:59:17;;;;;;;;;;;;;;;;;;5052272;28;20393;-81
2024/01/04 03:01:48;;;;;;;;;;;;;;;;;;5038262;28;20364;-81
2024/01/04 03:04:14;;;;;;;;;;;;;;;;;;5054559;28;19928;-81
2024/01/04 03:06:40;;;;;;;;;;;;;;;;;;5020634;28;19924;-81
2024/01/04 03:09:06;;;;;;;;;;;;;;;;;;5034210;28;19980;-81
2024/01/04 03:11:32;;;;;;;;;;;;;;;;;;5035416;28;19925;-81
2024/01/04 03:13:58;;;;;;;;;;;;;;;;;;5053582;28;19925;-81
2024/01/04 03:16:24;;;;;;;;;;;;;;;;;;5037914;28;19932;-81
2024/01/04 03:18:50;;;;;;;;;;;;;;;;;;5054626;28;19986;-81
2024/01/04 03:21:16;;;;;;;;;;;;;;;;;;5036132;28;19932;-81
2024/01/04 03:23:42;;;;;;;;;;;;;;;;;;5034830;28;19925;-81
2024/01/04 03:26:08;;;;;;;;;;;;;;;;;;5033070;28;19932;-80
2024/01/04 03:28:34;;;;;;;;;;;;;;;;;;5033680;28;19928;-80
2024/01/04 03:31:01;;;;;;;;;;;;;;;;;;5034074;28;20163;-80
2024/01/04 03:33:27;;;;;;;;;;;;;;;;;;5046246;28;20167;-81
2024/01/04 03:35:53;;;;;;;;;;;;;;;;;;5053407;28;19971;-80
2024/01/04 03:38:19;;;;;;;;;;;;;;;;;;5054433;28;20362;-81
2024/01/04 03:40:45;;;;;;;;;;;;;;;;;;5036037;28;20018;-81
2024/01/04 03:43:11;;;;;;;;;;;;;;;;;;5041580;28;19924;-81
2024/01/04 03:45:37;;;;;;;;;;;;;;;;;;5032596;28;19971;-81
2024/01/04 03:48:03;;;;;;;;;;;;;;;;;;5033776;28;20394;-81
2024/01/04 03:50:29;;;;;;;;;;;;;;;;;;5033897;28;20354;-81
2024/01/04 03:52:55;;;;;;;;;;;;;;;;;;5036303;28;20447;-81
2024/01/04 03:55:21;;;;;;;;;;;;;;;;;;5034132;28;19925;-81
2024/01/04 03:57:47;;;;;;;;;;;;;;;;;;5033425;28;20019;-81
2024/01/04 04:00:13;;;;;;;;;;;;;;;;;;5033781;28;19925;-80
2024/01/04 04:02:39;;;;;;;;;;;;;;;;;;5034565;28;19925;-81
2024/01/04 04:05:05;;;;;;;;;;;;;;;;;;5017273;28;19925;-80
2024/01/04 04:07:31;;;;;;;;;;;;;;;;;;5033393;28;19932;-81
2024/01/04 04:09:57;;;;;;;;;;;;;;;;;;5017448;28;19929;-80
2024/01/04 04:12:23;;;;;;;;;;;;;;;;;;5019023;28;19955;-80
2024/01/04 04:14:49;;;;;;;;;;;;;;;;;;5036785;28;19925;-80
2024/01/04 04:17:17;;;;;;;;;;;;;;;;;;5052978;28;19931;-80
2024/01/04 04:19:43;;;;;;;;;;;;;;;;;;5053668;28;20318;-81
2024/01/04 04:22:09;;;;;;;;;;;;;;;;;;5035125;28;19929;-80
2024/01/04 04:24:35;;;;;;;;;;;;;;;;;;5053838;28;20388;-80
2024/01/04 04:27:01;;;;;;;;;;;;;;;;;;5031985;28;20370;-80
2024/01/04 04:29:27;;;;;;;;;;;;;;;;;;5033818;28;20290;-80
2024/01/04 04:31:53;;;;;;;;;;;;;;;;;;5017531;28;19932;-80
2024/01/04 04:34:19;;;;;;;;;;;;;;;;;;5040466;28;19925;-81
2024/01/04 04:36:45;;;;;;;;;;;;;;;;;;5037849;28;19924;-81
2024/01/04 04:39:11;;;;;;;;;;;;;;;;;;5019820;28;20358;-81
2024/01/04 04:41:37;;;;;;;;;;;;;;;;;;5020929;28;20274;-81
2024/01/04 04:44:03;;;;;;;;;;;;;;;;;;5036478;28;19948;-80
2024/01/04 04:46:29;;;;;;;;;;;;;;;;;;5037096;28;20019;-81
2024/01/04 04:48:56;;;;;;;;;;;;;;;;;;5037428;28;19932;-81
2024/01/04 04:51:22;;;;;;;;;;;;;;;;;;5036468;28;20007;-81
2024/01/04 04:53:48;;;;;;;;;;;;;;;;;;5049112;28;19925;-81
2024/01/04 04:56:14;;;;;;;;;;;;;;;;;;5036342;28;19928;-81
2024/01/04 04:58:40;;;;;;;;;;;;;;;;;;5036411;28;19924;-81
2024/01/04 05:01:06;;;;;;;;;;;;;;;;;;5019436;28;19925;-80
2024/01/04 05:03:32;;;;;;;;;;;;;;;;;;5020373;28;19972;-81
2024/01/04 05:05:58;;;;;;;;;;;;;;;;;;5036535;28;19924;-81
2024/01/04 05:08:24;;;;;;;;;;;;;;;;;;5049782;28;19935;-81
2024/01/04 05:10:50;;;;;;;;;;;;;;;;;;5047520;28;19924;-81
2024/01/04 05:13:16;;;;;;;;;;;;;;;;;;5031274;28;19978;-81
2024/01/04 05:15:42;;;;;;;;;;;;;;;;;;5038762;28;20000;-80
2024/01/04 05:18:09;;;;;;;;;;;;;;;;;;5035630;28;19932;-80
2024/01/04 05:20:35;;;;;;;;;;;;;;;;;;5036098;28;19929;-81
2024/01/04 05:23:01;;;;;;;;;;;;;;;;;;5039375;28;19981;-81
2024/01/04 05:25:27;;;;;;;;;;;;;;;;;;5036031;28;19933;-81
2024/01/04 05:27:52;;;;;;;;;;;;;;;;;;5051892;28;19925;-81
2024/01/04 05:30:18;;;;;;;;;;;;;;;;;;5036181;28;20029;-80
2024/01/04 05:32:45;;;;;;;;;;;;;;;;;;5053307;28;20378;-81
2024/01/04 05:35:11;;;;;;;;;;;;;;;;;;5035739;28;20437;-80
2024/01/04 05:37:38;;;;;;;;;;;;;;;;;;5049996;28;19924;-80
2024/01/04 05:40:03;;;;;;;;;;;;;;;;;;5052958;28;19986;-81
2024/01/04 05:42:29;;;;;;;;;;;;;;;;;;5044695;28;20344;-81
2024/01/04 05:44:55;;;;;;;;;;;;;;;;;;5016529;28;19987;-81
2024/01/04 05:47:21;;;;;;;;;;;;;;;;;;5032330;28;19925;-81
2024/01/04 05:49:47;;;;;;;;;;;;;;;;;;5016015;28;20013;-81
2024/01/04 05:52:13;;;;;;;;;;;;;;;;;;5031916;28;19929;-80
2024/01/04 05:54:39;;;;;;;;;;;;;;;;;;5029618;28;19931;-81
2024/01/04 05:57:05;;;;;;;;;;;;;;;;;;5051520;28;19980;-80
2024/01/04 05:59:31;;;;;;;;;;;;;;;;;;5031973;28;19932;-81
2024/01/04 06:01:57;;;;;;;;;;;;;;;;;;5016047;28;19929;-81
2024/01/04 06:04:23;;;;;;;;;;;;;;;;;;5015697;28;19972;-81
2024/01/04 06:06:49;;;;;;;;;;;;;;;;;;5015068;28;19925;-80
2024/01/04 06:09:20;;;;;;;;;;;;;;;;;;5032107;28;19956;-80
2024/01/04 06:11:46;;;;;;;;;;;;;;;;;;5037595;28;19925;-80
2024/01/04 06:14:12;;;;;;;;;;;;;;;;;;5034758;28;19925;-80
2024/01/04 06:16:38;;;;;;;;;;;;;;;;;;5035038;28;19932;-80
2024/01/04 06:19:04;;;;;;;;;;;;;;;;;;5019047;28;19929;-81
2024/01/04 06:21:30;;;;;;;;;;;;;;;;;;5036064;28;19925;-81
2024/01/04 06:23:56;;;;;;;;;;;;;;;;;;5028123;28;19932;-80
2024/01/04 06:26:23;;;;;;;;;;;;;;;;;;5034604;28;19931;-81
2024/01/04 06:28:49;;;;;;;;;;;;;;;;;;5034614;28;19925;-81
2024/01/04 06:31:15;;;;;;;;;;;;;;;;;;5035015;28;20360;-80
2024/01/04 06:33:41;;;;;;;;;;;;;;;;;;5019067;28;20333;-80
2024/01/04 06:36:07;;;;;;;;;;;;;;;;;;5044065;28;19947;-81
2024/01/04 06:38:35;;;;;;;;;;;;;;;;;;5054538;28;19931;-80
2024/01/04 06:41:02;;;;;;;;;;;;;;;;;;5055151;28;19925;-80
2024/01/04 06:43:28;;;;;;;;;;;;;;;;;;5053807;28;19931;-80
2024/01/04 06:45:54;;;;;;;;;;;;;;;;;;5055132;28;19929;-81
2024/01/04 06:48:20;;;;;;;;;;;;;;;;;;5020840;28;19925;-80
2024/01/04 06:50:46;;;;;;;;;;;;;;;;;;5034873;28;19924;-80
2024/01/04 06:53:14;;;;;;;;;;;;;;;;;;5044813;28;19932;-80
2024/01/04 06:55:40;;;;;;;;;;;;;;;;;;5035163;28;19932;-80
2024/01/04 06:58:06;;;;;;;;;;;;;;;;;;5022447;28;19924;-81
2024/01/04 07:00:32;;;;;;;;;;;;;;;;;;5036781;28;19924;-80
2024/01/04 07:02:58;;;;;;;;;;;;;;;;;;5038355;28;19924;-80
2024/01/04 07:05:24;;;;;;;;;;;;;;;;;;5036822;28;19928;-80
2024/01/04 07:07:50;;;;;;;;;;;;;;;;;;5034294;28;19931;-80
2024/01/04 07:10:16;;;;;;;;;;;;;;;;;;5054462;28;19928;-80
2024/01/04 07:12:43;;;;;;;;;;;;;;;;;;5028735;28;19924;-80
2024/01/04 07:15:09;;;;;;;;;;;;;;;;;;5034949;28;19933;-80
2024/01/04 07:17:35;;;;;;;;;;;;;;;;;;5033740;28;20120;-80
2024/01/04 07:20:01;;;;;;;;;;;;;;;;;;5018091;28;19933;-80
2024/01/04 07:22:27;;;;;;;;;;;;;;;;;;5033606;28;19924;-80
2024/01/04 07:24:53;;;;;;;;;;;;;;;;;;5034582;28;19924;-80
2024/01/04 07:27:20;;;;;;;;;;;;;;;;;;5033948;28;19982;-80
2024/01/04 07:29:46;;;;;;;;;;;;;;;;;;5018596;28;20404;-80
2024/01/04 07:32:15;;;;;;;;;;;;;;;;;;5017782;28;19925;-80
2024/01/04 07:34:41;;;;;;;;;;;;;;;;;;5048106;28;19973;-80
2024/01/04 07:37:07;;;;;;;;;;;;;;;;;;5024412;28;20011;-80
2024/01/04 07:39:33;;;;;;;;;;;;;;;;;;5017496;28;19924;-80
2024/01/04 07:41:59;;;;;;;;;;;;;;;;;;5033881;28;20006;-80
2024/01/04 07:44:25;;;;;;;;;;;;;;;;;;5033521;28;19931;-80
2024/01/04 07:46:51;;;;;;;;;;;;;;;;;;5034042;28;19925;-81
2024/01/04 07:49:17;;;;;;;;;;;;;;;;;;5033483;28;19932;-81
2024/01/04 07:51:43;;;;;;;;;;;;;;;;;;5049632;28;22228;-81
2024/01/04 07:54:09;;;;;;;;;;;;;;;;;;5041707;28;19924;-81
2024/01/04 07:56:35;;;;;;;;;;;;;;;;;;5039351;28;19932;-72
2024/01/04 07:59:02;;;;;;;;;;;;;;;;;;5050972;28;19928;-72
2024/01/04 08:01:28;;;;;;;;;;;;;;;;;;5051303;28;19964;-72
2024/01/04 08:03:54;;;;;;;;;;;;;;;;;;5051718;28;19991;-71
2024/01/04 08:06:20;;;;;;;;;;;;;;;;;;5051278;28;19947;-71
2024/01/04 08:08:46;;;;;;;;;;;;;;;;;;5051279;28;20038;-80
2024/01/04 08:11:12;;;;;;;;;;;;;;;;;;5042597;28;19974;-80
2024/01/04 08:13:38;;;;;;;;;;;;;;;;;;5050419;28;20408;-80
2024/01/04 08:16:04;;;;;;;;;;;;;;;;;;5051727;28;19928;-80
2024/01/04 08:18:31;;;;;;;;;;;;;;;;;;5043953;28;19924;-80
2024/01/04 08:20:57;;;;;;;;;;;;;;;;;;5037391;28;19932;-79
2024/01/04 08:23:23;;;;;;;;;;;;;;;;;;5037785;28;19924;-80
2024/01/04 08:25:49;;;;;;;;;;;;;;;;;;5054058;28;19951;-79
2024/01/04 08:28:15;;;;;;;;;;;;;;;;;;5036137;28;20366;-80
2024/01/04 08:30:41;;;;;;;;;;;;;;;;;;5020814;28;20332;-80
2024/01/04 08:33:07;;;;;;;;;;;;;;;;;;5037743;28;19932;-80
2024/01/04 08:35:33;;;;;;;;;;;;;;;;;;5036635;28;19936;-80
2024/01/04 08:37:59;;;;;;;;;;;;;;;;;;5038353;28;19924;-80
2024/01/04 08:40:27;;;;;;;;;;;;;;;;;;5028082;28;19957;-80
2024/01/04 08:42:52;;;;;;;;;;;;;;;;;;5028871;28;19925;-80
2024/01/04 08:45:18;;;;;;;;;;;;;;;;;;5037105;28;19979;-80
2024/01/04 08:47:44;;;;;;;;;;;;;;;;;;5036691;28;19929;-80
2024/01/04 08:50:11;;;;;;;;;;;;;;;;;;5037570;28;20008;-80
2024/01/04 08:52:37;;;;;;;;;;;;;;;;;;5036425;28;19925;-80
2024/01/04 08:55:03;;;;;;;;;;;;;;;;;;5037138;28;19932;-79
2024/01/04 08:57:30;;;;;;;;;;;;;;;;;;5019410;28;19955;-79
2024/01/04 08:59:56;;;;;;;;;;;;;;;;;;5046856;28;19924;-80
2024/01/04 09:02:22;;;;;;;;;;;;;;;;;;5054819;28;19931;-80
2024/01/04 09:04:48;;;;;;;;;;;;;;;;;;5056516;28;19920;-80
2024/01/04 09:07:14;;;;;;;;;;;;;;;;;;5029186;28;19936;-80
2024/01/04 09:09:40;;;;;;;;;;;;;;;;;;5033553;28;19924;-80
2024/01/04 09:12:06;;;;;;;;;;;;;;;;;;5039216;28;19925;-80
2024/01/04 09:14:32;;;;;;;;;;;;;;;;;;5056721;28;19924;-80
2024/01/04 09:16:59;;;;;;;;;;;;;;;;;;5039913;28;19946;-77
2024/01/04 09:19:25;;;;;;;;;;;;;;;;;;5049696;28;20393;-77
2024/01/04 09:21:51;;;;;;;;;;;;;;;;;;5049120;28;19924;-77
2024/01/04 09:24:17;;;;;;;;;;;;;;;;;;5035376;28;19935;-77
2024/01/04 09:26:43;;;;;;;;;;;;;;;;;;5019425;28;20076;-77
2024/01/04 09:29:09;;;;;;;;;;;;;;;;;;5043915;28;19931;-81
2024/01/04 09:31:36;;;;;;;;;;;;;;;;;;5054903;28;19950;-81
2024/01/04 09:34:02;;;;;;;;;;;;;;;;;;5056634;28;20293;-80
2024/01/04 09:36:28;;;;;;;;;;;;;;;;;;5039328;28;19924;-80
2024/01/04 09:38:55;;;;;;;;;;;;;;;;;;5056025;28;19932;-80
2024/01/04 09:41:21;;;;;;;;;;;;;;;;;;5046900;28;20381;-80
2024/01/04 09:43:47;;;;;;;;;;;;;;;;;;5046191;28;19974;-81
2024/01/04 09:46:13;;;;;;;;;;;;;;;;;;5053093;28;19931;-80
2024/01/04 09:48:39;;;;;;;;;;;;;;;;;;5052324;28;20416;-79
2024/01/04 09:51:06;;;;;;;;;;;;;;;;;;5055040;28;20444;-80
2024/01/04 09:53:32;;;;;;;;;;;;;;;;;;5032747;28;19967;-81
2024/01/04 09:55:59;;;;;;;;;;;;;;;;;;5030327;28;20006;-81
2024/01/04 09:58:25;;;;;;;;;;;;;;;;;;5053548;28;19978;-81
2024/01/04 10:00:52;;;;;;;;;;;;;;;;;;5033652;28;19966;-80
2024/01/04 10:03:18;;;;;;;;;;;;;;;;;;5051132;28;19924;-80
2024/01/04 10:05:44;;;;;;;;;;;;;;;;;;5053747;28;19935;-78
2024/01/04 10:08:09;;;;;;;;;;;;;;;;;;5025521;28;19925;-81
2024/01/04 10:10:35;;;;;;;;;;;;;;;;;;5043947;28;19925;-81
2024/01/04 10:13:01;;;;;;;;;;;;;;;;;;5047954;28;19925;-80
2024/01/04 10:15:27;;;;;;;;;;;;;;;;;;5055495;28;20328;-80
2024/01/04 10:17:54;;;;;;;;;;;;;;;;;;5037300;28;20030;-76
2024/01/04 10:20:21;;;;;;;;;;;;;;;;;;5053668;28;19936;-82
2024/01/04 10:22:47;;;;;;;;;;;;;;;;;;5030619;28;20348;-82
2024/01/04 10:25:18;;;;;;;;;;;;;;;;;;5043721;28;19928;-82
2024/01/04 10:27:44;;;;;;;;;;;;;;;;;;5024750;28;19928;-82
2024/01/04 10:30:10;;;;;;;;;;;;;;;;;;5054925;28;19980;-82
2024/01/04 10:32:36;;;;;;;;;;;;;;;;;;5054549;28;19978;-81
2024/01/04 10:35:03;;;;;;;;;;;;;;;;;;5053309;28;19924;-82
2024/01/04 10:37:29;;;;;;;;;;;;;;;;;;5025919;28;19928;-82
2024/01/04 10:39:58;;;;;;;;;;;;;;;;;;5020787;28;19929;-82
2024/01/04 10:42:24;;;;;;;;;;;;;;;;;;5037396;28;19933;-83
2024/01/04 10:44:50;;;;;;;;;;;;;;;;;;5038572;28;19933;-82
2024/01/04 10:47:15;;;;;;;;;;;;;;;;;;5038009;28;19978;-81
2024/01/04 10:49:42;;;;;;;;;;;;;;;;;;5039861;28;19929;-82
2024/01/04 10:52:10;;;;;;;;;;;;;;;;;;5047389;28;19931;-81
2024/01/04 10:54:36;;;;;;;;;;;;;;;;;;5034272;28;19925;-81
2024/01/04 10:57:02;;;;;;;;;;;;;;;;;;5032270;28;20895;-82
2024/01/04 10:59:28;;;;;;;;;;;;;;;;;;5054135;28;19925;-81
2024/01/04 11:01:54;;;;;;;;;;;;;;;;;;5051385;28;19928;-81
2024/01/04 11:04:20;;;;;;;;;;;;;;;;;;5051669;28;19924;-80
2024/01/04 11:06:46;;;;;;;;;;;;;;;;;;5036393;28;19991;-82
2024/01/04 11:09:12;;;;;;;;;;;;;;;;;;5030614;28;19929;-81
2024/01/04 11:11:38;;;;;;;;;;;;;;;;;;5043365;28;19924;-84
2024/01/04 11:14:04;;;;;;;;;;;;;;;;;;5029209;28;19933;-81
2024/01/04 11:16:30;;;;;;;;;;;;;;;;;;5041665;28;19924;-81
2024/01/04 11:18:56;;;;;;;;;;;;;;;;;;5044059;28;20386;-82
2024/01/04 11:21:22;;;;;;;;;;;;;;;;;;5042779;28;19925;-82
2024/01/04 11:23:48;;;;;;;;;;;;;;;;;;5024459;28;19925;-83
2024/01/04 11:26:14;;;;;;;;;;;;;;;;;;5042496;28;19937;-81
2024/01/04 11:28:40;;;;;;;;;;;;;;;;;;5025437;28;20327;-81
2024/01/04 11:31:06;;;;;;;;;;;;;;;;;;5026435;28;19932;-81
2024/01/04 11:33:33;;;;;;;;;;;;;;;;;;5025224;28;19925;-80
2024/01/04 11:36:00;;;;;;;;;;;;;;;;;;5040637;28;20450;-81
2024/01/04 11:38:26;;;;;;;;;;;;;;;;;;5042103;28;20377;-81
2024/01/04 11:40:52;;;;;;;;;;;;;;;;;;5041480;28;20258;-81
2024/01/04 11:43:18;;;;;;;;;;;;;;;;;;5042826;28;19986;-81
2024/01/04 11:45:44;;;;;;;;;;;;;;;;;;5029205;28;20452;-81
2024/01/04 11:48:13;;;;;;;;;;;;;;;;;;5045876;28;19947;-81
2024/01/04 11:50:39;;;;;;;;;;;;;;;;;;5047964;28;19959;-81
2024/01/04 11:53:06;;;;;;;;;;;;;;;;;;5047425;28;19983;-83
2024/01/04 11:55:33;;;;;;;;;;;;;;;;;;5029963;28;20374;-81
2024/01/04 11:57:59;;;;;;;;;;;;;;;;;;5045026;28;19958;-81
2024/01/04 12:00:25;;;;;;;;;;;;;;;;;;5039905;28;20008;-81
2024/01/04 12:02:51;;;;;;;;;;;;;;;;;;5028833;28;19924;-81
2024/01/04 12:05:18;;;;;;;;;;;;;;;;;;5030162;28;19935;-81
2024/01/04 12:07:44;;;;;;;;;;;;;;;;;;5039628;28;20049;-81
2024/01/04 12:10:10;;;;;;;;;;;;;;;;;;5036941;28;19969;-81
2024/01/04 12:12:36;;;;;;;;;;;;;;;;;;5038832;28;20008;-81
2024/01/04 12:15:03;;;;;;;;;;;;;;;;;;5036888;28;19980;-81
2024/01/04 12:17:29;;;;;;;;;;;;;;;;;;5055604;28;19925;-81
2024/01/04 12:19:55;;;;;;;;;;;;;;;;;;5037183;28;20365;-81
2024/01/04 12:22:21;;;;;;;;;;;;;;;;;;5039251;28;19929;-81
2024/01/04 12:24:47;;;;;;;;;;;;;;;;;;5044100;28;19924;-81
2024/01/04 12:27:13;;;;;;;;;;;;;;;;;;5035965;28;20259;-81
2024/01/04 12:29:42;;;;;;;;;;;;;;;;;;5052914;28;19924;-81
2024/01/04 12:32:08;;;;;;;;;;;;;;;;;;5057311;28;20290;-81
2024/01/04 12:34:34;;;;;;;;;;;;;;;;;;5042960;28;19935;-81
2024/01/04 12:37:00;;;;;;;;;;;;;;;;;;5038636;28;19971;-81
2024/01/04 12:39:25;;;;;;;;;;;;;;;;;;5047407;28;20338;-81
2024/01/04 12:41:51;;;;;;;;;;;;;;;;;;5048177;28;20370;-81
2024/01/04 12:44:19;;;;;;;;;;;;;;;;;;5042221;28;20029;-82
2024/01/04 12:46:46;;;;;;;;;;;;;;;;;;5028872;28;19928;-82
2024/01/04 12:49:12;;;;;;;;;;;;;;;;;;5041030;28;19925;-80
2024/01/04 12:51:39;;;;;;;;;;;;;;;;;;5054449;28;19931;-81
2024/01/04 12:54:05;;;;;;;;;;;;;;;;;;5039634;28;19954;-81
2024/01/04 12:56:31;;;;;;;;;;;;;;;;;;5053740;28;19931;-80
2024/01/04 12:59:01;;;;;;;;;;;;;;;;;;5022688;28;19929;-80
2024/01/04 13:01:27;;;;;;;;;;;;;;;;;;5035834;28;19925;-81
2024/01/04 13:03:53;;;;;;;;;;;;;;;;;;5048039;28;19925;-81
2024/01/04 13:06:19;;;;;;;;;;;;;;;;;;5041397;28;19947;-81
2024/01/04 13:08:46;;;;;;;;;;;;;;;;;;5056674;28;19968;-81
2024/01/04 13:11:12;;;;;;;;;;;;;;;;;;5036674;28;19975;-80
2024/01/04 13:13:38;;;;;;;;;;;;;;;;;;5052568;28;20408;-81
2024/01/04 13:16:04;;;;;;;;;;;;;;;;;;5043321;28;19976;-81
2024/01/04 13:18:30;;;;;;;;;;;;;;;;;;5036118;28;19978;-81
2024/01/04 13:20:56;;;;;;;;;;;;;;;;;;5050149;28;20266;-81
2024/01/04 13:23:22;;;;;;;;;;;;;;;;;;5045268;28;19947;-81
2024/01/04 13:25:48;;;;;;;;;;;;;;;;;;5037515;28;19960;-81
2024/01/04 13:28:15;;;;;;;;;;;;;;;;;;5037944;28;20530;-81
2024/01/04 13:30:41;;;;;;;;;;;;;;;;;;5036613;28;19925;-80
2024/01/04 13:33:07;;;;;;;;;;;;;;;;;;5035952;28;19925;-81
2024/01/04 13:35:33;;;;;;;;;;;;;;;;;;5019493;28;19935;-80
2024/01/04 13:37:59;;;;;;;;;;;;;;;;;;5036226;28;19925;-81
2024/01/04 13:40:25;;;;;;;;;;;;;;;;;;5036250;28;20018;-80
2024/01/04 13:42:53;;;;;;;;;;;;;;;;;;5027258;28;20382;-81
2024/01/04 13:45:27;;;;;;;;;;;;;;;;;;5048702;28;20396;-80
2024/01/04 13:47:53;;;;;;;;;;;;;;;;;;5044629;28;19925;-80
2024/01/04 13:50:21;;;;;;;;;;;;;;;;;;5026237;28;20523;-80
2024/01/04 13:52:46;;;;;;;;;;;;;;;;;;5044794;28;19925;-80
2024/01/04 13:55:12;;;;;;;;;;;;;;;;;;5044470;28;19924;-80
2024/01/04 13:57:38;;;;;;;;;;;;;;;;;;5027705;28;19924;-81
2024/01/04 14:00:04;;;;;;;;;;;;;;;;;;5044041;28;19929;-81
2024/01/04 14:02:30;;;;;;;;;;;;;;;;;;5046343;28;19925;-81
2024/01/04 14:04:56;;;;;;;;;;;;;;;;;;5027736;28;19928;-81
2024/01/04 14:07:22;;;;;;;;;;;;;;;;;;5044809;28;19986;-81
2024/01/04 14:09:48;;;;;;;;;;;;;;;;;;5041554;28;19931;-81
2024/01/04 14:12:14;;;;;;;;;;;;;;;;;;5045414;28;19935;-81
2024/01/04 14:14:40;;;;;;;;;;;;;;;;;;5030359;28;19925;-80
2024/01/04 14:17:06;;;;;;;;;;;;;;;;;;5039151;28;19929;-80
2024/01/04 14:19:32;;;;;;;;;;;;;;;;;;5048441;28;19931;-80
2024/01/04 14:21:58;;;;;;;;;;;;;;;;;;5050135;28;19924;-80
2024/01/04 14:24:24;;;;;;;;;;;;;;;;;;5028126;28;20526;-80
2024/01/04 14:26:50;;;;;;;;;;;;;;;;;;5049382;28;20366;-80
2024/01/04 14:29:16;;;;;;;;;;;;;;;;;;5053189;28;20293;-80
2024/01/04 14:31:42;;;;;;;;;;;;;;;;;;5046549;28;20022;-80
2024/01/04 14:34:08;;;;;;;;;;;;;;;;;;5028318;28;19932;-87
2024/01/04 14:36:34;;;;;;;;;;;;;;;;;;5043495;28;19951;-82
2024/01/04 14:39:00;;;;;;;;;;;;;;;;;;5045327;28;20374;-79
2024/01/04 14:41:26;;;;;;;;;;;;;;;;;;5045095;28;19924;-78
2024/01/04 14:43:52;;;;;;;;;;;;;;;;;;5045375;28;20335;-78
2024/01/04 14:46:18;;;;;;;;;;;;;;;;;;5039188;28;19963;-80
2024/01/04 14:48:44;;;;;;;;;;;;;;;;;;5027386;28;20025;-80
2024/01/04 14:51:10;;;;;;;;;;;;;;;;;;5040928;28;19925;-80
2024/01/04 14:53:37;;;;;;;;;;;;;;;;;;5040665;28;20262;-80
2024/01/04 14:56:05;;;;;;;;;;;;;;;;;;5050578;28;20255;-80
2024/01/04 14:58:31;;;;;;;;;;;;;;;;;;5049526;28;19950;-80
2024/01/04 15:00:58;;;;;;;;;;;;;;;;;;5049772;28;19925;-80
2024/01/04 15:03:24;;;;;;;;;;;;;;;;;;5043213;28;20206;-80
2024/01/04 15:05:50;;;;;;;;;;;;;;;;;;5025142;28;19964;-80
2024/01/04 15:08:16;;;;;;;;;;;;;;;;;;5044033;28;20381;-80
2024/01/04 15:10:42;;;;;;;;;;;;;;;;;;5030081;28;20343;-80
2024/01/04 15:13:08;;;;;;;;;;;;;;;;;;5044705;28;19925;-80
2024/01/04 15:15:34;;;;;;;;;;;;;;;;;;5030565;28;19928;-80
2024/01/04 15:18:00;;;;;;;;;;;;;;;;;;5045986;28;19978;-80
2024/01/04 15:20:27;;;;;;;;;;;;;;;;;;5046646;28;19924;-80
2024/01/04 15:22:53;;;;;;;;;;;;;;;;;;5047777;28;20366;-80
2024/01/04 15:25:19;;;;;;;;;;;;;;;;;;5044472;28;19940;-80
2024/01/04 15:27:45;;;;;;;;;;;;;;;;;;5035100;28;20441;-80
2024/01/04 15:30:11;;;;;;;;;;;;;;;;;;5044914;28;20015;-80
2024/01/04 15:32:36;;;;;;;;;;;;;;;;;;5043264;28;20024;-80
2024/01/04 15:35:03;;;;;;;;;;;;;;;;;;5037980;28;20327;-83
2024/01/04 15:37:31;;;;;;;;;;;;;;;;;;5043115;28;19924;-82
2024/01/04 15:39:57;;;;;;;;;;;;;;;;;;5043867;28;19929;-80
2024/01/04 15:42:24;;;;;;;;;;;;;;;;;;5024798;28;20015;-81
2024/01/04 15:44:50;;;;;;;;;;;;;;;;;;5025315;28;19925;-80
2024/01/04 15:47:16;;;;;;;;;;;;;;;;;;5040829;28;19931;-80
2024/01/04 15:49:42;;;;;;;;;;;;;;;;;;5041575;28;19974;-81
2024/01/04 15:52:08;;;;;;;;;;;;;;;;;;5041554;28;19976;-81
2024/01/04 15:54:34;;;;;;;;;;;;;;;;;;5026119;28;20381;-80
2024/01/04 15:57:00;;;;;;;;;;;;;;;;;;5029872;28;19932;-81
2024/01/04 15:59:26;;;;;;;;;;;;;;;;;;5046714;28;19959;-81
2024/01/04 16:01:58;;;;;;;;;;;;;;;;;;5039267;28;19924;-81
2024/01/04 16:04:24;;;;;;;;;;;;;;;;;;5030559;28;19929;-81
2024/01/04 16:06:51;;;;;;;;;;;;;;;;;;5028360;28;20277;-80
2024/01/04 16:09:17;;;;;;;;;;;;;;;;;;5041287;28;20015;-80
2024/01/04 16:11:43;;;;;;;;;;;;;;;;;;5042841;28;19934;-80
2024/01/04 16:14:09;;;;;;;;;;;;;;;;;;5044672;28;19932;-80
2024/01/04 16:16:35;;;;;;;;;;;;;;;;;;5048050;28;19932;-80
2024/01/04 16:19:01;;;;;;;;;;;;;;;;;;5042513;28;20278;-81
2024/01/04 16:21:27;;;;;;;;;;;;;;;;;;5047419;28;19932;-80
2024/01/04 16:23:53;;;;;;;;;;;;;;;;;;5044042;28;19925;-81
2024/01/04 16:26:19;;;;;;;;;;;;;;;;;;5029592;28;19924;-80
2024/01/04 16:28:45;;;;;;;;;;;;;;;;;;5039044;28;19963;-80
2024/01/04 16:31:11;;;;;;;;;;;;;;;;;;5026744;28;19932;-80
2024/01/04 16:33:37;;;;;;;;;;;;;;;;;;5036593;28;19920;-81
2024/01/04 16:36:06;;;;;;;;;;;;;;;;;;5029298;28;20063;-81
2024/01/04 16:38:32;;;;;;;;;;;;;;;;;;5031835;28;19928;-82